Welcome to the updated website with new and more accurate equipment. Established 2007


Active alerts


No alerts

Local Station more information Local Station


Mount Mesnard more information Mount Mesnard


Visit our other weather sites:

Template documentation
and downloads

And another site


CBI


Nearby METAR Reports

   
KSAW - Sawyer, Michigan
Updated: 11-12-2018 04:38
Overcast  
Overcast  
   Wind: WSW 6.9 mph
Wind: WSW 6.9 mph
Temperature: 21.2°F
Wind Chill: 12.2°F
Dew Point: 17.6°F
Humidity: 86%
Barometer: 29.88 inHg
Clouds: Overcast
Visibility: 7 mi
Cloud details: Overcast 305 m
KSAW 110938Z AUTO 25006KT 7SM OVC010 M06/M08 A2988 RMK AO2 T10601080
KESC - Escanaba, Michigan
Updated: 11-12-2018 03:56
Overcast  
Overcast  
   Wind: West 9.2 mph
Wind: West 9.2 mph
Temperature: 19.4°F
Wind Chill: 8.6°F
Dew Point: 15.8°F
Humidity: 86%
Barometer: 29.94 inHg
Clouds: Overcast
Visibility: 9 mi
Cloud details: Overcast 732 m
KESC 110856Z AUTO 28008KT 9SM OVC024 M07/M09 A2994 RMK AO2 SLP163 T10671089 53002 FZRANO
KIMT - Iron Mountain, MI
Updated: 11-12-2018 04:30
Overcast  
Overcast  
   Wind: West 3.5 mph
Wind: West 3.5 mph
Temperature: 21.2°F
Wind Chill: 15.8°F
Dew Point: 17.6°F
Humidity: 86%
Barometer: 29.91 inHg
Clouds: Overcast
Visibility: 8 mi
Cloud details: Overcast 427 m
KIMT 110930Z AUTO 28003KT 8SM OVC014 M06/M08 A2991 RMK AO2 T10561078
KGRB - Green Bay, WI
Updated: 11-12-2018 03:53
Overcast  
Overcast  
   Wind: West 8.1 mph
Wind: West 8.1 mph
Temperature: 24.8°F
Wind Chill: 15.8°F
Dew Point: 19.4°F
Humidity: 80%
Barometer: 29.99 inHg
Clouds: Overcast
Visibility: 8 mi
Cloud details: Overcast 396 m
KGRB 110853Z AUTO 28007KT 8SM OVC013 M04/M07 A2999 RMK AO2 SLP167 T10441072 53001
KDET - Detroit, MI
Updated: 11-12-2018 04:49
Haze, Overcast  
Haze, Overcast  
   Wind: SSW 12.7 mph
Wind: SSW 12.7 mph
Temperature: 24.8°F
Wind Chill: 12.2°F
Dew Point: 19.4°F
Humidity: 80%
Barometer: 30.05 inHg
Clouds: Overcast
Visibility: 6 mi
Cloud details: Overcast 396 m
KDET 110949Z 21011KT 6SM HZ OVC013 M04/M07 A3005 RMK AO2
 

Script developed by  Saratoga-weather.org Adapted for the template by  Weerstation Leuven

You find our weather info also at:

Weather Underground

Midwestern Weather Network

WeatherlinkIP

Citizen Weather Observer Program (CWOP)

Equipment we use:

Weather-station
Davis VP2

Weather-program
Davis Weatherlink.Com

Davis VP2

Davis Weatherlink.Com